createdAt,value
2022-09-24T00:00:34.273Z,14.20
2022-09-24T00:04:40.916Z,14.20
2022-09-24T00:08:49.777Z,14.30
2022-09-24T00:12:56.428Z,14.30
2022-09-24T00:17:03.073Z,14.30
2022-09-24T00:21:18.604Z,14.30
2022-09-24T00:25:44.353Z,14.30
2022-09-24T00:29:51.041Z,14.30
2022-09-24T00:33:58.394Z,14.20
2022-09-24T00:38:06.250Z,14.30
2022-09-24T00:42:13.524Z,14.20
2022-09-24T00:46:32.569Z,14.20
2022-09-24T00:50:39.626Z,14.30
2022-09-24T00:54:47.053Z,14.30
2022-09-24T00:58:56.898Z,14.30
2022-09-24T01:03:19.140Z,15.50
2022-09-24T01:07:25.800Z,14.30
2022-09-24T01:11:55.396Z,14.20
2022-09-24T01:16:19.953Z,14.30
2022-09-24T01:20:32.677Z,14.20
2022-09-24T01:24:48.786Z,14.20
2022-09-24T01:29:21.598Z,14.20
2022-09-24T01:33:32.032Z,14.20
2022-09-24T01:37:41.649Z,14.20
2022-09-24T01:41:49.861Z,14.20
2022-09-24T01:45:59.425Z,14.20
2022-09-24T01:50:08.842Z,14.20
2022-09-24T01:54:23.853Z,14.20
2022-09-24T01:58:36.905Z,14.20
2022-09-24T02:02:57.617Z,14.20
2022-09-24T02:07:17.128Z,14.20
2022-09-24T02:11:24.408Z,14.10
2022-09-24T02:15:39.109Z,14.10
2022-09-24T02:19:48.230Z,14.10
2022-09-24T02:24:01.673Z,14.20
2022-09-24T02:28:08.490Z,14.10
2022-09-24T02:32:18.706Z,14.10
2022-09-24T02:36:26.007Z,14.10
2022-09-24T02:40:34.221Z,14.10
2022-09-24T02:44:41.026Z,14.10
2022-09-24T02:48:47.806Z,14.10
2022-09-24T02:52:54.937Z,14.10
2022-09-24T02:57:01.642Z,14.10
2022-09-24T03:01:08.308Z,14.10
2022-09-24T03:05:18.218Z,14.10
2022-09-24T03:09:24.921Z,14.00
2022-09-24T03:13:31.587Z,14.00
2022-09-24T03:17:38.289Z,14.00
2022-09-24T03:21:45.048Z,14.10
2022-09-24T03:25:51.971Z,14.00
2022-09-24T03:30:17.089Z,14.00
2022-09-24T03:34:23.759Z,14.00
2022-09-24T03:38:31.146Z,14.00
2022-09-24T03:42:37.798Z,14.00
2022-09-24T03:46:44.538Z,13.90
2022-09-24T03:50:51.698Z,13.90
2022-09-24T03:54:58.539Z,13.90
2022-09-24T03:59:05.187Z,13.90
2022-09-24T04:03:12.065Z,13.90
2022-09-24T04:07:18.896Z,13.90
2022-09-24T04:11:25.728Z,13.90
2022-09-24T04:15:33.156Z,13.90
2022-09-24T04:19:40.130Z,13.90
2022-09-24T04:23:47.006Z,13.90
2022-09-24T04:27:59.457Z,13.90
2022-09-24T04:32:06.144Z,13.90
2022-09-24T04:36:12.840Z,13.90
2022-09-24T04:40:19.777Z,13.90
2022-09-24T04:44:27.840Z,13.90
2022-09-24T04:48:38.318Z,13.90
2022-09-24T04:52:44.993Z,13.90
2022-09-24T04:56:51.669Z,13.90
2022-09-24T05:01:03.782Z,13.90
2022-09-24T05:05:11.497Z,13.90
2022-09-24T05:09:18.411Z,13.80
2022-09-24T05:13:25.195Z,13.80
2022-09-24T05:17:31.912Z,13.90
2022-09-24T05:21:38.551Z,13.80
2022-09-24T05:26:14.710Z,13.90
2022-09-24T05:30:23.944Z,13.90
2022-09-24T05:34:31.098Z,13.90
2022-09-24T05:38:41.478Z,13.90
2022-09-24T05:42:48.471Z,13.80
2022-09-24T05:46:55.351Z,13.90
2022-09-24T05:51:02.647Z,13.80
2022-09-24T05:55:10.479Z,13.90
2022-09-24T05:59:17.136Z,13.90
2022-09-24T06:03:23.837Z,13.90
2022-09-24T06:07:31.063Z,13.90
2022-09-24T06:11:40.825Z,13.90
2022-09-24T06:15:47.874Z,13.90
2022-09-24T06:19:55.474Z,13.90
2022-09-24T06:24:03.045Z,13.90
2022-09-24T06:28:09.727Z,14.00
2022-09-24T06:32:16.442Z,13.90
2022-09-24T06:36:23.139Z,14.00
2022-09-24T06:40:35.541Z,14.00
2022-09-24T06:44:43.470Z,14.00
2022-09-24T06:48:50.125Z,14.00
2022-09-24T06:52:57.168Z,14.10
2022-09-24T06:57:06.529Z,14.00
2022-09-24T07:01:13.262Z,14.10
2022-09-24T07:05:19.993Z,14.10
2022-09-24T07:09:26.663Z,14.10
2022-09-24T07:13:33.404Z,14.10
2022-09-24T07:17:40.088Z,14.10
2022-09-24T07:21:46.753Z,14.10
2022-09-24T07:25:57.220Z,14.10
2022-09-24T07:30:06.269Z,14.20
2022-09-24T07:34:14.122Z,14.20
2022-09-24T07:38:21.172Z,14.20
2022-09-24T07:42:29.085Z,14.20
2022-09-24T07:46:36.242Z,14.20
2022-09-24T07:50:43.045Z,14.20
2022-09-24T07:54:49.929Z,15.30
2022-09-24T07:58:56.666Z,14.30
2022-09-24T08:03:04.195Z,14.30
2022-09-24T08:07:12.659Z,14.40
2022-09-24T08:11:20.441Z,14.30
2022-09-24T08:15:27.134Z,14.40
2022-09-24T08:19:34.409Z,14.40
2022-09-24T08:23:42.744Z,14.40
2022-09-24T08:27:49.420Z,14.60
2022-09-24T08:31:56.101Z,14.50
2022-09-24T08:36:05.654Z,14.70
2022-09-24T08:40:22.020Z,14.60
2022-09-24T08:45:04.701Z,14.70
2022-09-24T08:49:16.259Z,14.80
2022-09-24T08:53:33.899Z,14.80
2022-09-24T08:57:59.351Z,14.90
2022-09-24T09:02:41.910Z,14.90
2022-09-24T09:07:02.103Z,14.90
2022-09-24T09:11:13.393Z,14.80
2022-09-24T09:15:33.239Z,14.80
2022-09-24T09:19:41.525Z,14.80
2022-09-24T09:23:50.783Z,14.80
2022-09-24T09:28:03.180Z,14.80
2022-09-24T09:32:30.642Z,14.80
2022-09-24T09:36:49.459Z,14.80
2022-09-24T09:41:02.924Z,14.80
2022-09-24T09:45:23.058Z,14.80
2022-09-24T09:49:38.473Z,14.70
2022-09-24T09:54:01.198Z,14.70
2022-09-24T09:58:22.492Z,14.70
2022-09-24T10:02:33.507Z,14.70
2022-09-24T10:06:40.332Z,14.70
2022-09-24T10:10:55.367Z,14.70
2022-09-24T10:15:04.823Z,14.70
2022-09-24T10:19:22.907Z,14.70
2022-09-24T10:23:47.264Z,14.40
2022-09-24T10:28:16.994Z,14.70
2022-09-24T10:32:25.642Z,14.70
2022-09-24T10:36:35.476Z,14.70
2022-09-24T10:40:42.313Z,14.70
2022-09-24T10:44:52.860Z,14.70
2022-09-24T10:49:06.266Z,14.70
2022-09-24T10:53:24.397Z,14.80
2022-09-24T10:57:40.277Z,14.80
2022-09-24T11:02:19.961Z,14.90
2022-09-24T11:06:53.439Z,14.90
2022-09-24T11:11:31.260Z,14.90
2022-09-24T11:15:58.633Z,14.90
2022-09-24T11:20:25.534Z,14.90
2022-09-24T11:24:38.276Z,14.90
2022-09-24T11:29:06.254Z,14.80
2022-09-24T11:33:37.153Z,14.80
2022-09-24T11:38:00.561Z,14.80
2022-09-24T11:42:35.092Z,14.80
2022-09-24T11:47:06.178Z,14.80
2022-09-24T11:51:43.082Z,14.80
2022-09-24T11:55:59.405Z,14.70
2022-09-24T12:00:13.827Z,14.70
2022-09-24T12:04:31.183Z,14.70
2022-09-24T12:08:57.810Z,14.60
2022-09-24T12:13:29.199Z,14.60
2022-09-24T12:17:47.557Z,14.70
2022-09-24T12:21:56.003Z,14.70
2022-09-24T12:26:05.864Z,14.70
2022-09-24T12:30:41.981Z,14.80
2022-09-24T12:35:11.569Z,16.20
2022-09-24T12:39:22.309Z,14.60
2022-09-24T12:43:45.793Z,14.50
2022-09-24T12:47:59.914Z,14.40
2022-09-24T12:52:18.958Z,14.50
2022-09-24T12:56:29.584Z,14.50
2022-09-24T13:00:39.118Z,14.50
2022-09-24T13:05:27.341Z,14.60
2022-09-24T13:09:35.528Z,14.60
2022-09-24T13:13:44.142Z,14.60
2022-09-24T13:18:04.277Z,14.70
2022-09-24T13:22:31.957Z,14.80
2022-09-24T13:26:38.860Z,14.80
2022-09-24T13:30:50.089Z,14.80
2022-09-24T13:34:58.629Z,14.60
2022-09-24T13:39:12.106Z,14.50
2022-09-24T13:43:35.622Z,14.40
2022-09-24T13:47:46.374Z,14.50
2022-09-24T13:52:12.923Z,14.50
2022-09-24T13:56:21.237Z,14.30
2022-09-24T14:00:29.899Z,14.30
2022-09-24T14:04:37.405Z,14.40
2022-09-24T14:08:46.824Z,14.30
2022-09-24T14:13:01.599Z,14.30
2022-09-24T14:17:12.742Z,14.30
2022-09-24T14:21:30.677Z,14.10
2022-09-24T14:25:39.742Z,14.10
2022-09-24T14:29:51.811Z,14.10
2022-09-24T14:34:03.603Z,14.20
2022-09-24T14:38:19.445Z,14.20
2022-09-24T14:42:44.255Z,14.30
2022-09-24T14:46:59.398Z,14.40
2022-09-24T14:51:21.553Z,14.40
2022-09-24T14:55:40.500Z,14.40
2022-09-24T14:59:47.700Z,14.40
2022-09-24T15:04:08.132Z,14.40
2022-09-24T15:08:24.030Z,14.50
2022-09-24T15:12:33.680Z,14.50
2022-09-24T15:16:40.411Z,14.50
2022-09-24T15:20:47.061Z,14.50
2022-09-24T15:25:00.258Z,14.40
2022-09-24T15:29:09.520Z,14.40
2022-09-24T15:33:17.484Z,14.30
2022-09-24T15:37:26.376Z,14.20
2022-09-24T15:41:33.861Z,14.10
2022-09-24T15:45:40.563Z,14.10
2022-09-24T15:49:47.448Z,14.20
2022-09-24T15:53:54.112Z,14.10
2022-09-24T15:58:02.048Z,14.00
2022-09-24T16:02:22.436Z,13.90
2022-09-24T16:06:29.135Z,13.90
2022-09-24T16:10:36.021Z,13.90
2022-09-24T16:14:42.819Z,13.90
2022-09-24T16:18:49.519Z,13.80
2022-09-24T16:22:56.283Z,13.80
2022-09-24T16:27:02.961Z,13.80
2022-09-24T16:31:09.901Z,13.80
2022-09-24T16:35:17.459Z,13.90
2022-09-24T16:39:24.137Z,13.80
2022-09-24T16:43:31.184Z,13.80
2022-09-24T16:47:37.940Z,13.80
2022-09-24T16:51:45.146Z,13.70
2022-09-24T16:55:51.794Z,13.80
2022-09-24T16:59:58.575Z,13.80
2022-09-24T17:04:06.716Z,13.90
2022-09-24T17:08:13.360Z,13.80
2022-09-24T17:12:20.041Z,13.80
2022-09-24T17:16:27.233Z,13.60
2022-09-24T17:20:34.022Z,13.60
2022-09-24T17:24:40.703Z,13.40
2022-09-24T17:28:51.955Z,13.30
2022-09-24T17:32:58.606Z,13.20
2022-09-24T17:37:05.284Z,13.20
2022-09-24T17:41:13.775Z,13.10
2022-09-24T17:45:22.184Z,13.10
2022-09-24T17:49:28.857Z,13.10
2022-09-24T17:53:36.729Z,13.00
2022-09-24T17:57:43.424Z,12.90
2022-09-24T18:01:51.387Z,13.00
2022-09-24T18:06:05.412Z,12.80
2022-09-24T18:10:12.135Z,12.70
2022-09-24T18:14:22.185Z,12.70
2022-09-24T18:18:28.916Z,13.00
2022-09-24T18:22:35.587Z,12.80
2022-09-24T18:26:43.750Z,12.70
2022-09-24T18:31:01.100Z,13.40
2022-09-24T18:35:08.368Z,12.70
2022-09-24T18:39:21.834Z,12.80
2022-09-24T18:43:31.902Z,12.80
2022-09-24T18:47:38.626Z,12.80
2022-09-24T18:51:46.566Z,12.50
2022-09-24T18:55:53.976Z,12.90
2022-09-24T19:00:00.849Z,12.80
2022-09-24T19:04:10.517Z,12.90
2022-09-24T19:08:20.783Z,12.80
2022-09-24T19:12:29.758Z,12.80
2022-09-24T19:16:36.432Z,12.90
2022-09-24T19:20:45.645Z,12.90
2022-09-24T19:24:52.306Z,12.80
2022-09-24T19:28:59.616Z,13.00
2022-09-24T19:33:06.300Z,12.90
2022-09-24T19:37:12.952Z,12.90
2022-09-24T19:41:24.424Z,12.90
2022-09-24T19:45:31.667Z,12.90
2022-09-24T19:49:38.300Z,13.00
2022-09-24T19:53:49.479Z,13.00
2022-09-24T19:57:56.392Z,13.00
2022-09-24T20:02:03.327Z,13.00
2022-09-24T20:06:22.625Z,13.10
2022-09-24T20:10:31.184Z,13.00
2022-09-24T20:14:37.901Z,12.90
2022-09-24T20:18:46.965Z,12.90
2022-09-24T20:22:53.889Z,12.90
2022-09-24T20:27:19.233Z,12.90
2022-09-24T20:31:26.030Z,13.00
2022-09-24T20:35:32.937Z,13.00
2022-09-24T20:39:39.638Z,12.90
2022-09-24T20:43:46.478Z,13.00
2022-09-24T20:47:53.182Z,13.00
2022-09-24T20:52:02.775Z,12.90
2022-09-24T20:56:09.650Z,12.80
2022-09-24T21:00:16.877Z,12.90
2022-09-24T21:04:24.252Z,12.80
2022-09-24T21:08:33.077Z,12.70
2022-09-24T21:12:40.038Z,12.80
2022-09-24T21:16:47.393Z,12.90
2022-09-24T21:20:54.034Z,12.90
2022-09-24T21:25:00.824Z,12.90
2022-09-24T21:29:11.793Z,12.90
2022-09-24T21:33:18.409Z,12.90
2022-09-24T21:37:25.248Z,12.90
2022-09-24T21:41:35.057Z,12.90
2022-09-24T21:45:41.706Z,13.00
2022-09-24T21:49:48.379Z,12.80
2022-09-24T21:54:00.243Z,12.90
2022-09-24T21:58:07.013Z,12.90
2022-09-24T22:02:14.611Z,12.80
2022-09-24T22:06:22.535Z,12.80
2022-09-24T22:10:29.177Z,12.80
2022-09-24T22:14:37.192Z,12.70
2022-09-24T22:18:43.982Z,12.60
2022-09-24T22:22:50.634Z,12.60
2022-09-24T22:26:57.286Z,12.60
2022-09-24T22:31:07.064Z,12.50
2022-09-24T22:35:32.391Z,12.50
2022-09-24T22:39:39.158Z,12.40
2022-09-24T22:43:46.000Z,12.30
2022-09-24T22:47:53.347Z,12.00
2022-09-24T22:52:00.315Z,12.00
2022-09-24T22:56:14.753Z,12.00
2022-09-24T23:00:21.466Z,11.80
2022-09-24T23:04:28.163Z,11.60
2022-09-24T23:08:36.769Z,11.70
2022-09-24T23:12:43.420Z,11.60
2022-09-24T23:16:50.109Z,11.60
2022-09-24T23:20:57.483Z,11.50
2022-09-24T23:25:04.425Z,11.50
2022-09-24T23:29:12.478Z,11.40
2022-09-24T23:33:19.173Z,11.40
2022-09-24T23:37:25.830Z,11.30
2022-09-24T23:41:32.861Z,11.30
2022-09-24T23:45:39.880Z,11.20
2022-09-24T23:49:46.609Z,11.20
2022-09-24T23:53:53.455Z,11.10
2022-09-24T23:58:00.149Z,11.10
